createdAt,value
2019-03-22T00:01:52.187Z,0.80
2019-03-22T00:04:22.184Z,1.00
2019-03-22T00:06:52.128Z,0.87
2019-03-22T00:09:22.131Z,1.20
2019-03-22T00:11:52.413Z,1.37
2019-03-22T00:14:22.342Z,1.17
2019-03-22T00:16:52.363Z,1.50
2019-03-22T00:19:23.084Z,1.53
2019-03-22T00:21:53.185Z,1.87
2019-03-22T00:24:23.054Z,1.50
2019-03-22T00:26:52.966Z,1.80
2019-03-22T00:29:22.873Z,1.67
2019-03-22T00:31:52.923Z,2.07
2019-03-22T00:34:22.902Z,2.30
2019-03-22T00:36:52.862Z,1.80
2019-03-22T00:39:22.784Z,2.30
2019-03-22T00:41:52.890Z,1.80
2019-03-22T00:44:22.784Z,1.47
2019-03-22T00:46:52.671Z,2.00
2019-03-22T00:49:23.718Z,2.00
2019-03-22T00:51:53.651Z,1.90
2019-03-22T00:54:23.539Z,2.20
2019-03-22T00:56:53.563Z,2.30
2019-03-22T00:59:23.613Z,2.00
2019-03-22T01:01:53.660Z,2.00
2019-03-22T01:04:23.551Z,2.37
2019-03-22T01:06:53.417Z,2.20
2019-03-22T01:09:23.342Z,2.03
2019-03-22T01:11:53.437Z,1.80
2019-03-22T01:14:23.371Z,2.03
2019-03-22T01:16:53.299Z,2.10
2019-03-22T01:19:23.270Z,2.37
2019-03-22T01:21:53.335Z,2.10
2019-03-22T01:24:23.256Z,2.30
2019-03-22T01:26:53.215Z,2.47
2019-03-22T01:29:23.314Z,1.90
2019-03-22T01:31:53.660Z,2.47
2019-03-22T01:34:23.711Z,2.23
2019-03-22T01:36:54.812Z,2.03
2019-03-22T01:39:24.724Z,2.00
2019-03-22T01:41:54.594Z,1.87
2019-03-22T01:44:24.488Z,2.37
2019-03-22T01:46:54.575Z,2.27
2019-03-22T01:49:24.608Z,2.10
2019-03-22T01:51:54.510Z,1.80
2019-03-22T01:54:24.395Z,2.33
2019-03-22T01:56:54.462Z,2.47
2019-03-22T01:59:25.373Z,2.27
2019-03-22T02:01:55.356Z,2.40
2019-03-22T02:04:25.514Z,2.17
2019-03-22T02:06:55.403Z,2.30
2019-03-22T02:09:25.742Z,1.57
2019-03-22T02:11:55.686Z,2.07
2019-03-22T02:14:25.627Z,2.43
2019-03-22T02:16:55.631Z,2.30
2019-03-22T02:19:25.582Z,2.00
2019-03-22T02:21:55.586Z,1.70
2019-03-22T02:24:25.667Z,1.70
2019-03-22T02:26:55.647Z,1.80
2019-03-22T02:29:25.540Z,2.47
2019-03-22T02:31:55.547Z,1.73
2019-03-22T02:34:25.532Z,1.30
2019-03-22T02:36:55.459Z,1.80
2019-03-22T02:39:25.771Z,1.63
2019-03-22T02:41:55.960Z,1.67
2019-03-22T02:44:25.977Z,1.43
2019-03-22T02:46:56.080Z,1.33
2019-03-22T02:49:26.068Z,1.40
2019-03-22T02:51:55.964Z,1.40
2019-03-22T02:54:25.922Z,1.30
2019-03-22T02:56:55.830Z,1.30
2019-03-22T02:59:26.105Z,1.40
2019-03-22T03:01:56.152Z,1.10
2019-03-22T03:04:26.184Z,1.00
2019-03-22T03:06:56.168Z,1.27
2019-03-22T03:09:26.234Z,0.93
2019-03-22T03:11:56.256Z,1.17
2019-03-22T03:14:26.112Z,0.93
2019-03-22T03:16:56.091Z,1.30
2019-03-22T03:19:25.997Z,1.03
2019-03-22T03:21:55.987Z,0.90
2019-03-22T03:24:25.992Z,0.77
2019-03-22T03:26:55.859Z,0.87
2019-03-22T03:29:25.786Z,1.17
2019-03-22T03:31:55.662Z,0.90
2019-03-22T03:34:25.786Z,0.90
2019-03-22T03:36:55.767Z,1.00
2019-03-22T03:39:25.774Z,1.13
2019-03-22T03:41:55.723Z,0.97
2019-03-22T03:44:25.621Z,1.00
2019-03-22T03:46:55.493Z,1.07
2019-03-22T03:49:25.383Z,0.80
2019-03-22T03:51:55.382Z,0.87
2019-03-22T03:54:25.301Z,0.87
2019-03-22T03:56:55.188Z,0.90
2019-03-22T03:59:25.135Z,1.03
2019-03-22T04:01:55.043Z,1.33
2019-03-22T04:04:25.966Z,1.47
2019-03-22T04:06:55.871Z,1.00
2019-03-22T04:09:25.747Z,1.00
2019-03-22T04:11:55.661Z,1.17
2019-03-22T04:14:25.563Z,1.17
2019-03-22T04:16:55.482Z,1.00
2019-03-22T04:19:25.339Z,1.00
2019-03-22T04:21:55.266Z,1.00
2019-03-22T04:24:25.253Z,1.13
2019-03-22T04:26:55.223Z,1.00
2019-03-22T04:29:25.122Z,1.10
2019-03-22T04:31:56.074Z,1.10
2019-03-22T04:34:25.975Z,1.00
2019-03-22T04:36:55.854Z,1.20
2019-03-22T04:39:25.769Z,1.27
2019-03-22T04:41:56.779Z,0.87
2019-03-22T04:44:26.664Z,1.00
2019-03-22T04:46:57.329Z,0.80
2019-03-22T04:49:28.102Z,0.83
2019-03-22T04:51:58.482Z,0.90
2019-03-22T04:54:30.346Z,1.37
2019-03-22T04:57:00.647Z,1.30
2019-03-22T04:59:32.290Z,1.17
2019-03-22T05:02:03.478Z,0.93
2019-03-22T05:04:36.067Z,1.30
2019-03-22T05:07:06.233Z,1.23
2019-03-22T05:09:37.203Z,0.90
2019-03-22T05:12:09.007Z,1.13
2019-03-22T05:14:41.596Z,1.67
2019-03-22T05:17:13.589Z,1.30
2019-03-22T05:19:46.511Z,2.10
2019-03-22T05:22:17.831Z,1.10
2019-03-22T05:24:49.026Z,1.13
2019-03-22T05:27:20.119Z,1.37
2019-03-22T05:29:52.214Z,1.40
2019-03-22T05:32:22.241Z,1.23
2019-03-22T05:34:52.080Z,1.43
2019-03-22T05:37:22.033Z,1.47
2019-03-22T05:39:51.951Z,1.43
2019-03-22T05:42:21.837Z,1.10
2019-03-22T05:44:51.743Z,1.33
2019-03-22T05:47:21.911Z,1.30
2019-03-22T05:49:51.825Z,1.63
2019-03-22T05:52:21.727Z,1.33
2019-03-22T05:54:51.614Z,1.30
2019-03-22T05:57:21.516Z,1.87
2019-03-22T05:59:51.488Z,1.20
2019-03-22T06:02:21.368Z,1.97
2019-03-22T06:04:51.314Z,1.50
2019-03-22T06:07:21.243Z,1.60
2019-03-22T06:09:51.144Z,1.20
2019-03-22T06:12:21.148Z,1.40
2019-03-22T06:14:51.033Z,1.53
2019-03-22T06:17:20.953Z,1.20
2019-03-22T06:19:50.933Z,1.33
2019-03-22T06:22:20.818Z,1.43
2019-03-22T06:24:50.742Z,1.90
2019-03-22T06:27:20.638Z,1.90
2019-03-22T06:29:54.398Z,1.50
2019-03-22T06:32:22.248Z,1.20
2019-03-22T06:34:52.130Z,1.40
2019-03-22T06:37:22.036Z,1.20
2019-03-22T06:39:51.893Z,1.27
2019-03-22T06:42:21.817Z,1.03
2019-03-22T06:44:51.867Z,1.77
2019-03-22T06:47:21.796Z,1.33
2019-03-22T06:49:54.572Z,1.10
2019-03-22T06:52:24.643Z,1.23
2019-03-22T06:54:54.595Z,1.13
2019-03-22T06:57:24.533Z,1.57
2019-03-22T07:00:06.014Z,1.50
2019-03-22T07:02:26.203Z,0.97
2019-03-22T07:04:56.186Z,1.27
2019-03-22T07:07:26.160Z,1.80
2019-03-22T07:09:56.176Z,1.13
2019-03-22T07:12:26.317Z,1.37
2019-03-22T07:14:56.454Z,1.93
2019-03-22T07:17:26.412Z,1.40
2019-03-22T07:19:56.292Z,1.63
2019-03-22T07:22:26.328Z,1.30
2019-03-22T07:24:56.229Z,1.43
2019-03-22T07:27:26.254Z,1.43
2019-03-22T07:29:56.207Z,1.90
2019-03-22T07:32:26.186Z,1.03
2019-03-22T07:34:56.184Z,1.10
2019-03-22T07:37:27.193Z,1.40
2019-03-22T07:39:57.073Z,1.00
2019-03-22T07:42:27.026Z,1.23
2019-03-22T07:44:56.970Z,1.00
2019-03-22T07:47:26.982Z,0.70
2019-03-22T07:49:56.947Z,1.20
2019-03-22T07:52:26.966Z,1.20
2019-03-22T07:54:56.934Z,0.80
2019-03-22T07:57:26.972Z,0.90
2019-03-22T07:59:56.978Z,0.90
2019-03-22T08:02:26.986Z,1.00
2019-03-22T08:04:57.013Z,1.40
2019-03-22T08:07:27.955Z,1.70
2019-03-22T08:09:58.107Z,0.97
2019-03-22T08:12:28.144Z,1.03
2019-03-22T08:14:58.040Z,1.10
2019-03-22T08:17:28.029Z,1.13
2019-03-22T08:19:57.962Z,1.23
2019-03-22T08:22:27.950Z,1.40
2019-03-22T08:24:57.846Z,1.07
2019-03-22T08:27:27.736Z,0.80
2019-03-22T08:29:57.628Z,1.10
2019-03-22T08:32:27.525Z,0.73
2019-03-22T08:34:57.387Z,1.00
2019-03-22T08:37:27.317Z,0.90
2019-03-22T08:39:57.331Z,0.90
2019-03-22T08:42:27.293Z,0.80
2019-03-22T08:44:57.190Z,0.97
2019-03-22T08:47:33.698Z,0.77
2019-03-22T08:49:59.818Z,0.90
2019-03-22T08:52:29.717Z,0.87
2019-03-22T08:54:59.606Z,0.90
2019-03-22T08:57:29.586Z,0.63
2019-03-22T08:59:59.505Z,0.80
2019-03-22T09:02:29.414Z,0.80
2019-03-22T09:04:59.338Z,1.27
2019-03-22T09:07:29.384Z,0.80
2019-03-22T09:09:59.289Z,0.87
2019-03-22T09:12:29.370Z,1.00
2019-03-22T09:14:59.233Z,0.90
2019-03-22T09:17:29.135Z,0.70
2019-03-22T09:19:59.123Z,0.93
2019-03-22T09:22:29.081Z,0.90
2019-03-22T09:24:58.989Z,1.00
2019-03-22T09:27:28.884Z,0.70
2019-03-22T09:29:59.903Z,0.60
2019-03-22T09:32:29.919Z,0.37
2019-03-22T09:34:59.962Z,0.60
2019-03-22T09:37:29.930Z,0.80
2019-03-22T09:40:00.381Z,0.90
2019-03-22T09:42:30.576Z,0.70
2019-03-22T09:45:00.631Z,0.77
2019-03-22T09:47:30.746Z,0.70
2019-03-22T09:50:00.659Z,0.90
2019-03-22T09:52:33.591Z,0.70
2019-03-22T09:55:12.562Z,0.70
2019-03-22T09:57:33.699Z,0.73
2019-03-22T10:00:03.729Z,0.90
2019-03-22T10:02:33.850Z,0.70
2019-03-22T10:05:06.121Z,0.70
2019-03-22T10:07:36.058Z,0.73
2019-03-22T10:10:07.669Z,0.47
2019-03-22T10:12:37.623Z,0.87
2019-03-22T10:15:08.090Z,0.50
2019-03-22T10:17:38.033Z,0.97
2019-03-22T10:20:08.024Z,0.67
2019-03-22T10:22:38.063Z,0.80
2019-03-22T10:25:08.447Z,0.63
2019-03-22T10:27:38.426Z,0.63
2019-03-22T10:30:11.970Z,0.93
2019-03-22T10:32:41.932Z,0.50
2019-03-22T10:35:25.031Z,0.80
2019-03-22T10:37:43.542Z,0.70
2019-03-22T10:40:14.982Z,0.67
2019-03-22T10:42:45.033Z,0.70
2019-03-22T10:45:15.442Z,0.60
2019-03-22T10:47:45.638Z,0.67
2019-03-22T10:50:15.858Z,0.70
2019-03-22T10:52:48.205Z,0.63
2019-03-22T10:55:29.260Z,0.83
2019-03-22T10:57:49.251Z,0.70
2019-03-22T11:00:19.344Z,0.43
2019-03-22T11:02:49.313Z,0.80
2019-03-22T11:05:19.416Z,0.63
2019-03-22T11:07:49.425Z,0.63
2019-03-22T11:10:20.249Z,0.40
2019-03-22T11:12:50.144Z,0.70
2019-03-22T11:15:20.008Z,0.70
2019-03-22T11:17:49.897Z,0.70
2019-03-22T11:20:19.831Z,0.97
2019-03-22T11:22:50.071Z,0.60
2019-03-22T11:25:20.026Z,0.50
2019-03-22T11:27:49.978Z,1.00
2019-03-22T11:30:20.069Z,0.80
2019-03-22T11:32:49.971Z,0.93
2019-03-22T11:35:19.869Z,1.00
2019-03-22T11:37:49.838Z,0.70
2019-03-22T11:40:19.992Z,0.70
2019-03-22T11:42:51.467Z,0.70
2019-03-22T11:45:21.798Z,0.77
2019-03-22T11:47:51.677Z,0.80
2019-03-22T11:50:21.680Z,0.70
2019-03-22T11:52:51.516Z,0.60
2019-03-22T11:55:21.526Z,0.80
2019-03-22T11:57:51.397Z,0.73
2019-03-22T12:00:23.994Z,0.87
2019-03-22T12:02:53.852Z,0.63
2019-03-22T12:05:24.320Z,1.00
2019-03-22T12:07:54.204Z,0.60
2019-03-22T12:10:25.132Z,0.70
2019-03-22T12:12:55.179Z,0.57
2019-03-22T12:15:25.837Z,0.60
2019-03-22T12:17:55.729Z,0.77
2019-03-22T12:20:25.903Z,0.70
2019-03-22T12:22:56.004Z,0.67
2019-03-22T12:25:26.925Z,0.60
2019-03-22T12:27:57.079Z,0.73
2019-03-22T12:30:27.102Z,0.93
2019-03-22T12:32:57.039Z,0.87
2019-03-22T12:35:27.056Z,0.80
2019-03-22T12:37:57.779Z,0.60
2019-03-22T12:40:28.015Z,0.90
2019-03-22T12:42:58.202Z,0.80
2019-03-22T12:45:30.448Z,0.70
2019-03-22T12:48:00.329Z,0.83
2019-03-22T12:50:30.250Z,0.90
2019-03-22T12:53:00.188Z,0.73
2019-03-22T12:55:30.657Z,0.77
2019-03-22T12:58:00.638Z,1.03
2019-03-22T13:00:30.571Z,0.97
2019-03-22T13:03:00.461Z,0.70
2019-03-22T13:05:30.751Z,0.90
2019-03-22T13:08:00.664Z,0.90
2019-03-22T13:10:31.595Z,0.83
2019-03-22T13:13:01.445Z,1.10
2019-03-22T13:15:31.362Z,0.90
2019-03-22T13:18:02.261Z,0.80
2019-03-22T13:20:32.201Z,1.20
2019-03-22T13:23:02.081Z,0.90
2019-03-22T13:25:32.002Z,1.00
2019-03-22T13:28:01.934Z,1.00
2019-03-22T13:30:36.229Z,1.10
2019-03-22T13:33:06.582Z,1.07
2019-03-22T13:35:36.646Z,0.80
2019-03-22T13:38:06.646Z,0.80
2019-03-22T13:40:36.645Z,0.90
2019-03-22T13:43:06.689Z,0.97
2019-03-22T13:45:36.653Z,0.97
2019-03-22T13:48:06.527Z,0.93
2019-03-22T13:50:36.490Z,0.90
2019-03-22T13:53:06.515Z,0.90
2019-03-22T13:55:36.535Z,0.90
2019-03-22T13:58:06.484Z,1.10
2019-03-22T14:00:36.410Z,0.80
2019-03-22T14:03:06.351Z,1.00
2019-03-22T14:05:36.245Z,0.73
2019-03-22T14:08:06.278Z,1.10
2019-03-22T14:10:37.772Z,2.47
2019-03-22T14:13:07.753Z,0.97
2019-03-22T14:15:37.767Z,0.90
2019-03-22T14:18:07.669Z,1.13
2019-03-22T14:20:37.594Z,0.90
2019-03-22T14:23:07.861Z,0.77
2019-03-22T14:25:37.797Z,0.93
2019-03-22T14:28:07.683Z,0.90
2019-03-22T14:30:37.685Z,0.77
2019-03-22T14:33:13.286Z,0.80
2019-03-22T14:35:39.151Z,0.90
2019-03-22T14:38:08.974Z,0.93
2019-03-22T14:40:38.867Z,1.00
2019-03-22T14:43:08.753Z,0.93
2019-03-22T14:45:38.647Z,1.10
2019-03-22T14:48:08.567Z,0.70
2019-03-22T14:50:38.406Z,1.00
2019-03-22T14:53:08.310Z,1.83
2019-03-22T14:55:38.228Z,1.00
2019-03-22T14:58:08.093Z,1.00
2019-03-22T15:00:37.954Z,0.87
2019-03-22T15:03:09.432Z,0.97
2019-03-22T15:05:39.294Z,0.83
2019-03-22T15:08:10.129Z,0.70
2019-03-22T15:10:41.219Z,0.73
2019-03-22T15:13:11.374Z,1.07
2019-03-22T15:15:54.841Z,0.83
2019-03-22T15:18:32.361Z,0.97
2019-03-22T15:21:12.693Z,0.87
2019-03-22T15:23:44.339Z,1.03
2019-03-22T15:26:15.972Z,0.93
2019-03-22T15:28:47.381Z,1.03
2019-03-22T15:31:24.944Z,0.80
2019-03-22T15:33:56.395Z,0.87
2019-03-22T15:36:27.852Z,1.10
2019-03-22T15:39:01.944Z,0.90
2019-03-22T15:41:33.496Z,1.27
2019-03-22T15:44:03.423Z,1.00
2019-03-22T15:46:33.371Z,0.80
2019-03-22T15:49:03.248Z,0.80
2019-03-22T15:51:34.237Z,0.80
2019-03-22T15:54:04.439Z,1.00
2019-03-22T15:56:34.331Z,1.17
2019-03-22T15:59:04.238Z,0.90
2019-03-22T16:01:36.126Z,0.70
2019-03-22T16:04:06.055Z,0.93
2019-03-22T16:06:35.934Z,0.93
2019-03-22T16:09:07.975Z,0.80
2019-03-22T16:11:37.892Z,1.43
2019-03-22T16:14:07.775Z,1.27
2019-03-22T16:16:37.669Z,1.00
2019-03-22T16:19:07.555Z,0.60
2019-03-22T16:21:37.474Z,1.10
2019-03-22T16:24:07.354Z,1.30
2019-03-22T16:26:38.259Z,1.33
2019-03-22T16:29:09.156Z,1.27
2019-03-22T16:31:39.077Z,0.93
2019-03-22T16:34:09.035Z,0.87
2019-03-22T16:36:38.912Z,1.30
2019-03-22T16:39:09.295Z,0.83
2019-03-22T16:41:39.115Z,0.97
2019-03-22T16:44:09.012Z,1.23
2019-03-22T16:46:38.845Z,2.00
2019-03-22T16:49:08.725Z,1.20
2019-03-22T16:51:38.594Z,1.23
2019-03-22T16:54:08.515Z,1.00
2019-03-22T16:56:38.437Z,1.03
2019-03-22T16:59:08.258Z,0.87
2019-03-22T17:01:50.347Z,1.10
2019-03-22T17:04:31.392Z,0.90
2019-03-22T17:07:04.248Z,1.20
2019-03-22T17:09:40.175Z,0.80
2019-03-22T17:12:15.642Z,1.10
2019-03-22T17:14:53.283Z,1.00
2019-03-22T17:17:30.417Z,1.10
2019-03-22T17:20:10.443Z,0.80
2019-03-22T17:22:47.636Z,1.00
2019-03-22T17:25:24.510Z,1.20
2019-03-22T17:28:02.403Z,1.20
2019-03-22T17:30:37.369Z,0.83
2019-03-22T17:33:08.883Z,1.20
2019-03-22T17:35:44.365Z,0.90
2019-03-22T17:38:22.832Z,0.93
2019-03-22T17:41:04.413Z,1.47
2019-03-22T17:43:39.859Z,1.10
2019-03-22T17:46:20.011Z,1.20
2019-03-22T17:49:01.586Z,1.00
2019-03-22T17:51:41.239Z,1.03
2019-03-22T17:54:13.391Z,0.83
2019-03-22T17:56:48.572Z,1.07
2019-03-22T17:59:18.474Z,0.90
2019-03-22T18:01:48.412Z,0.87
2019-03-22T18:04:24.033Z,0.90
2019-03-22T18:06:51.264Z,1.20
2019-03-22T18:09:21.223Z,1.20
2019-03-22T18:11:51.079Z,1.30
2019-03-22T18:14:21.031Z,0.90
2019-03-22T18:16:50.935Z,1.00
2019-03-22T18:19:20.989Z,0.83
2019-03-22T18:21:50.865Z,1.50
2019-03-22T18:24:20.760Z,1.20
2019-03-22T18:26:53.171Z,0.90
2019-03-22T18:29:26.940Z,1.00
2019-03-22T18:32:03.009Z,1.30
2019-03-22T18:34:39.495Z,1.00
2019-03-22T18:37:13.191Z,1.43
2019-03-22T18:39:43.251Z,1.23
2019-03-22T18:42:13.231Z,1.07
2019-03-22T18:44:43.133Z,1.00
2019-03-22T18:47:13.015Z,1.00
2019-03-22T18:49:43.033Z,1.13
2019-03-22T18:52:12.910Z,1.03
2019-03-22T18:54:42.844Z,1.30
2019-03-22T18:57:12.753Z,1.10
2019-03-22T18:59:42.620Z,1.00
2019-03-22T19:02:12.677Z,1.27
2019-03-22T19:04:44.326Z,1.57
2019-03-22T19:07:14.061Z,1.00
2019-03-22T19:09:43.972Z,1.23
2019-03-22T19:12:13.916Z,1.00
2019-03-22T19:14:43.817Z,1.23
2019-03-22T19:17:13.727Z,1.10
2019-03-22T19:19:44.532Z,1.20
2019-03-22T19:22:14.654Z,1.10
2019-03-22T19:24:44.527Z,1.20
2019-03-22T19:27:14.448Z,0.73
2019-03-22T19:29:44.341Z,1.00
2019-03-22T19:32:14.501Z,1.10
2019-03-22T19:34:53.897Z,0.80
2019-03-22T19:37:15.945Z,1.43
2019-03-22T19:39:45.867Z,1.20
2019-03-22T19:42:15.829Z,0.97
2019-03-22T19:44:45.769Z,1.17
2019-03-22T19:47:15.614Z,1.30
2019-03-22T19:49:45.504Z,1.00
2019-03-22T19:52:15.390Z,1.00
2019-03-22T19:54:45.316Z,1.23
2019-03-22T19:57:16.411Z,1.10
2019-03-22T19:59:46.394Z,1.17
2019-03-22T20:02:16.321Z,1.20
2019-03-22T20:04:46.253Z,0.90
2019-03-22T20:07:16.159Z,1.37
2019-03-22T20:09:46.089Z,1.23
2019-03-22T20:12:16.117Z,1.00
2019-03-22T20:14:45.987Z,1.30
2019-03-22T20:17:15.888Z,1.00
2019-03-22T20:19:46.020Z,1.00
2019-03-22T20:22:16.452Z,1.20
2019-03-22T20:24:46.361Z,1.30
2019-03-22T20:27:16.247Z,1.00
2019-03-22T20:29:46.123Z,1.10
2019-03-22T20:32:16.853Z,0.90
2019-03-22T20:34:48.448Z,1.43
2019-03-22T20:37:19.901Z,1.37
2019-03-22T20:39:49.806Z,1.00
2019-03-22T20:42:19.744Z,1.17
2019-03-22T20:44:50.640Z,1.37
2019-03-22T20:47:20.565Z,1.27
2019-03-22T20:49:50.459Z,1.57
2019-03-22T20:52:20.330Z,1.03
2019-03-22T20:54:50.252Z,1.27
2019-03-22T20:57:20.143Z,1.10
2019-03-22T20:59:50.024Z,1.07
2019-03-22T21:02:20.059Z,1.70
2019-03-22T21:04:49.909Z,1.30
2019-03-22T21:07:19.990Z,1.57
2019-03-22T21:09:49.959Z,0.80
2019-03-22T21:12:20.008Z,1.50
2019-03-22T21:14:49.919Z,1.50
2019-03-22T21:17:19.783Z,0.97
2019-03-22T21:19:49.701Z,1.23
2019-03-22T21:22:20.637Z,1.20
2019-03-22T21:24:50.724Z,1.37
2019-03-22T21:27:20.600Z,1.43
2019-03-22T21:29:50.606Z,1.13
2019-03-22T21:32:20.627Z,1.40
2019-03-22T21:34:50.605Z,1.30
2019-03-22T21:37:20.670Z,1.17
2019-03-22T21:39:50.671Z,1.27
2019-03-22T21:42:20.651Z,1.10
2019-03-22T21:44:50.727Z,1.10
2019-03-22T21:47:20.689Z,1.30
2019-03-22T21:49:50.573Z,1.20
2019-03-22T21:52:20.555Z,0.80
2019-03-22T21:54:50.528Z,1.10
2019-03-22T21:57:20.405Z,1.20
2019-03-22T21:59:50.327Z,1.17
2019-03-22T22:02:20.218Z,1.40
2019-03-22T22:04:51.243Z,1.10
2019-03-22T22:07:21.410Z,1.00
2019-03-22T22:09:51.391Z,1.17
2019-03-22T22:12:21.274Z,1.23
2019-03-22T22:14:51.168Z,1.07
2019-03-22T22:17:21.135Z,1.20
2019-03-22T22:19:52.100Z,1.50
2019-03-22T22:22:22.910Z,1.10
2019-03-22T22:24:52.749Z,1.10
2019-03-22T22:27:22.651Z,1.20
2019-03-22T22:29:52.569Z,1.20
2019-03-22T22:32:22.577Z,1.20
2019-03-22T22:34:52.461Z,1.10
2019-03-22T22:37:22.639Z,1.10
2019-03-22T22:39:52.691Z,1.00
2019-03-22T22:42:22.548Z,1.40
2019-03-22T22:44:52.432Z,1.37
2019-03-22T22:47:22.335Z,1.10
2019-03-22T22:49:52.192Z,1.47
2019-03-22T22:52:22.129Z,0.90
2019-03-22T22:54:52.009Z,1.40
2019-03-22T22:57:21.876Z,1.10
2019-03-22T22:59:51.832Z,1.50
2019-03-22T23:02:21.679Z,0.90
2019-03-22T23:04:51.619Z,1.53
2019-03-22T23:07:21.487Z,1.53
2019-03-22T23:09:51.404Z,1.17
2019-03-22T23:12:21.327Z,1.30
2019-03-22T23:14:51.198Z,1.03
2019-03-22T23:17:21.056Z,1.50
2019-03-22T23:19:50.928Z,1.20
2019-03-22T23:22:20.859Z,1.10
2019-03-22T23:24:50.783Z,1.43
2019-03-22T23:27:20.735Z,1.17
2019-03-22T23:29:50.622Z,1.40
2019-03-22T23:32:20.702Z,1.47
2019-03-22T23:34:58.656Z,0.90
2019-03-22T23:37:22.236Z,1.13
2019-03-22T23:39:52.164Z,1.20
2019-03-22T23:42:22.102Z,1.13
2019-03-22T23:44:52.002Z,1.17
2019-03-22T23:47:22.000Z,1.40
2019-03-22T23:49:52.013Z,1.40
2019-03-22T23:52:21.867Z,1.30
2019-03-22T23:54:51.895Z,1.30
2019-03-22T23:57:22.054Z,1.30
2019-03-22T23:59:52.000Z,0.90
